createdAt,value
2023-04-09T00:01:23.837Z,99883.77
2023-04-09T00:03:53.184Z,99883.73
2023-04-09T00:06:22.291Z,99888.14
2023-04-09T00:08:51.002Z,99890.39
2023-04-09T00:13:53.948Z,99894.23
2023-04-09T00:16:22.348Z,99892.09
2023-04-09T00:18:51.016Z,99884.65
2023-04-09T00:21:20.822Z,99884.13
2023-04-09T00:23:49.061Z,99882.65
2023-04-09T00:26:17.476Z,99882.04
2023-04-09T00:28:46.219Z,99884.20
2023-04-09T00:31:15.886Z,99885.59
2023-04-09T00:33:44.823Z,99882.64
2023-04-09T00:36:14.246Z,99886.04
2023-04-09T00:38:42.846Z,99883.38
2023-04-09T00:41:13.542Z,99885.30
2023-04-09T00:43:41.816Z,99878.12
2023-04-09T00:46:10.102Z,99882.59
2023-04-09T00:48:39.607Z,99884.05
2023-04-09T00:51:09.167Z,99885.34
2023-04-09T00:53:37.630Z,99885.29
2023-04-09T00:56:07.058Z,99885.81
2023-04-09T00:58:41.802Z,99886.25
2023-04-09T01:01:10.105Z,99887.10
2023-04-09T01:03:40.050Z,99890.42
2023-04-09T01:06:23.071Z,99889.73
2023-04-09T01:09:12.155Z,99896.81
2023-04-09T01:12:07.122Z,99895.90
2023-04-09T01:14:41.365Z,99892.53
2023-04-09T01:17:58.985Z,99893.60
2023-04-09T01:20:36.125Z,99891.77
2023-04-09T01:23:17.030Z,99891.25
2023-04-09T01:26:00.515Z,99893.85
2023-04-09T01:28:42.379Z,99890.49
2023-04-09T01:31:25.414Z,99893.73
2023-04-09T01:33:54.130Z,99889.45
2023-04-09T01:36:24.388Z,99886.19
2023-04-09T01:38:56.155Z,99886.20
2023-04-09T01:41:27.331Z,99884.84
2023-04-09T01:43:56.013Z,99882.60
2023-04-09T01:46:25.235Z,99884.42
2023-04-09T01:48:55.026Z,99880.41
2023-04-09T01:51:23.782Z,99884.05
2023-04-09T01:53:52.109Z,99883.65
2023-04-09T01:56:23.590Z,99885.00
2023-04-09T01:58:57.311Z,99885.73
2023-04-09T02:01:48.312Z,99885.14
2023-04-09T02:04:40.789Z,99885.17
2023-04-09T02:07:40.310Z,99884.06
2023-04-09T02:10:10.419Z,99888.33
2023-04-09T02:12:41.884Z,99889.15
2023-04-09T02:15:12.596Z,99889.23
2023-04-09T02:17:41.495Z,99885.55
2023-04-09T02:20:10.448Z,99884.58
2023-04-09T02:22:39.291Z,99886.30
2023-04-09T02:25:07.918Z,99889.63
2023-04-09T02:27:36.358Z,99895.23
2023-04-09T02:30:08.533Z,99899.14
2023-04-09T02:32:37.114Z,99898.67
2023-04-09T02:35:08.105Z,99900.51
2023-04-09T02:37:37.886Z,99895.31
2023-04-09T02:40:06.543Z,99900.88
2023-04-09T02:42:35.036Z,99903.99
2023-04-09T02:45:03.506Z,99902.99
2023-04-09T02:47:38.834Z,99905.52
2023-04-09T02:50:08.338Z,99912.30
2023-04-09T02:52:37.837Z,99909.81
2023-04-09T02:55:08.555Z,99902.42
2023-04-09T02:57:37.557Z,99902.55
2023-04-09T03:00:09.375Z,99894.70
2023-04-09T03:02:39.783Z,99895.11
2023-04-09T03:05:08.292Z,99901.93
2023-04-09T03:07:36.770Z,99899.84
2023-04-09T03:10:07.335Z,99903.41
2023-04-09T03:12:36.175Z,99905.80
2023-04-09T03:15:04.957Z,99904.11
2023-04-09T03:17:33.427Z,99902.56
2023-04-09T03:20:02.242Z,99904.20
2023-04-09T03:22:37.894Z,99910.30
2023-04-09T03:25:09.460Z,99909.51
2023-04-09T03:27:38.103Z,99911.58
2023-04-09T03:30:08.404Z,99912.13
2023-04-09T03:32:41.526Z,99916.69
2023-04-09T03:35:10.770Z,99911.17
2023-04-09T03:37:41.239Z,99910.98
2023-04-09T03:40:14.845Z,99912.36
2023-04-09T03:42:44.251Z,99914.36
2023-04-09T03:45:13.559Z,99913.23
2023-04-09T03:47:46.091Z,99914.98
2023-04-09T03:50:14.702Z,99918.95
2023-04-09T03:52:48.786Z,99909.83
2023-04-09T03:55:17.146Z,99911.82
2023-04-09T03:57:45.692Z,99909.67
2023-04-09T04:00:18.503Z,99908.77
2023-04-09T04:02:53.668Z,99909.16
2023-04-09T04:05:38.049Z,99907.27
2023-04-09T04:08:09.473Z,99907.70
2023-04-09T04:10:37.961Z,99902.73
2023-04-09T04:13:20.765Z,99902.23
2023-04-09T04:15:54.854Z,99903.92
2023-04-09T04:18:25.391Z,99907.80
2023-04-09T04:20:57.355Z,99910.73
2023-04-09T04:23:45.704Z,99908.29
2023-04-09T04:26:25.396Z,99910.52
2023-04-09T04:28:54.882Z,99913.27
2023-04-09T04:31:41.901Z,99912.23
2023-04-09T04:34:11.229Z,99915.86
2023-04-09T04:36:40.706Z,99916.04
2023-04-09T04:39:10.479Z,99916.48
2023-04-09T04:41:49.949Z,99918.70
2023-04-09T04:44:24.011Z,99914.67
2023-04-09T04:46:58.112Z,99918.52
2023-04-09T04:49:27.075Z,99922.27
2023-04-09T04:51:57.791Z,99926.88
2023-04-09T04:54:26.438Z,99930.98
2023-04-09T04:56:57.660Z,99934.94
2023-04-09T04:59:42.979Z,99934.73
2023-04-09T05:02:13.218Z,99936.56
2023-04-09T05:04:57.401Z,99937.95
2023-04-09T05:07:33.959Z,99938.64
2023-04-09T05:10:06.136Z,99938.45
2023-04-09T05:12:38.520Z,99942.51
2023-04-09T05:15:09.168Z,99947.23
2023-04-09T05:17:43.196Z,99945.23
2023-04-09T05:20:13.546Z,99947.89
2023-04-09T05:22:50.630Z,99944.66
2023-04-09T05:25:20.160Z,99947.55
2023-04-09T05:27:49.326Z,99948.36
2023-04-09T05:30:17.679Z,99955.48
2023-04-09T05:32:50.124Z,99957.59
2023-04-09T05:35:18.723Z,99955.17
2023-04-09T05:37:47.104Z,99959.32
2023-04-09T05:40:15.842Z,99954.52
2023-04-09T05:42:46.053Z,99959.67
2023-04-09T05:45:20.122Z,99959.83
2023-04-09T05:47:52.146Z,99954.92
2023-04-09T05:50:24.207Z,99960.98
2023-04-09T05:53:00.905Z,99960.94
2023-04-09T05:55:38.070Z,99962.05
2023-04-09T05:58:07.803Z,99958.81
2023-04-09T06:00:42.528Z,99959.77
2023-04-09T06:03:11.067Z,99963.92
2023-04-09T06:05:39.681Z,99970.72
2023-04-09T06:08:10.651Z,99968.17
2023-04-09T06:10:40.461Z,99966.43
2023-04-09T06:13:10.506Z,99971.51
2023-04-09T06:15:44.137Z,99976.84
2023-04-09T06:18:13.721Z,99978.94
2023-04-09T06:20:42.013Z,99978.48
2023-04-09T06:23:15.471Z,99975.67
2023-04-09T06:25:45.058Z,99977.65
2023-04-09T06:28:13.377Z,99978.65
2023-04-09T06:30:47.663Z,99980.99
2023-04-09T06:33:16.806Z,99981.95
2023-04-09T06:35:45.058Z,99983.03
2023-04-09T06:38:13.602Z,99985.20
2023-04-09T06:40:42.678Z,99984.09
2023-04-09T06:43:12.438Z,99981.25
2023-04-09T06:45:51.725Z,99984.84
2023-04-09T06:48:20.211Z,99987.23
2023-04-09T06:50:48.701Z,99987.80
2023-04-09T06:53:17.811Z,99984.11
2023-04-09T06:55:46.469Z,99985.23
2023-04-09T06:58:16.675Z,99985.71
2023-04-09T07:00:44.962Z,99984.98
2023-04-09T07:03:16.045Z,99990.95
2023-04-09T07:05:45.194Z,99988.96
2023-04-09T07:08:13.497Z,99991.22
2023-04-09T07:10:42.464Z,99991.80
2023-04-09T07:13:13.441Z,99988.98
2023-04-09T07:15:42.678Z,99991.55
2023-04-09T07:18:11.962Z,99992.38
2023-04-09T07:20:43.132Z,99992.07
2023-04-09T07:23:12.148Z,99993.35
2023-04-09T07:25:42.495Z,99996.46
2023-04-09T07:28:11.781Z,99993.44
2023-04-09T07:30:40.558Z,99994.20
2023-04-09T07:33:09.025Z,99998.14
2023-04-09T07:35:38.781Z,100001.73
2023-04-09T07:38:07.430Z,99995.14
2023-04-09T07:40:41.675Z,99995.31
2023-04-09T07:43:10.693Z,99994.71
2023-04-09T07:45:39.172Z,99995.38
2023-04-09T07:48:09.449Z,99996.21
2023-04-09T07:50:38.984Z,99996.61
2023-04-09T07:53:07.151Z,99985.23
2023-04-09T07:55:35.382Z,99983.17
2023-04-09T07:58:07.489Z,99984.44
2023-04-09T08:00:41.028Z,99982.05
2023-04-09T08:03:10.346Z,99978.14
2023-04-09T08:05:40.067Z,99981.32
2023-04-09T08:11:41.029Z,99982.86
2023-04-09T08:14:13.019Z,99977.66
2023-04-09T08:16:43.402Z,99976.17
2023-04-09T08:19:12.483Z,99977.38
2023-04-09T08:21:44.671Z,99978.05
2023-04-09T08:24:12.938Z,99972.58
2023-04-09T08:26:42.808Z,99977.13
2023-04-09T08:29:13.072Z,99976.90
2023-04-09T08:31:41.497Z,99976.34
2023-04-09T08:34:10.020Z,99967.91
2023-04-09T08:36:38.527Z,99971.52
2023-04-09T08:39:07.225Z,99973.70
2023-04-09T08:41:40.620Z,99972.55
2023-04-09T08:44:08.804Z,99971.45
2023-04-09T08:46:37.412Z,99968.67
2023-04-09T08:49:05.684Z,99972.77
2023-04-09T08:51:34.217Z,99971.23
2023-04-09T08:54:04.626Z,99965.62
2023-04-09T08:56:33.761Z,99969.95
